Time;durP1;ratioP1;P1;durP2;ratioP2;P2;SDS_P1;SDS_P2;PMS_P1;PMS_P2;Temp;Humidity;BMP_temperature;BMP_pressure;BME280_temperature;BME280_humidity;BME280_pressure;Samples;Min_cycle;Max_cycle;Signal;HPM_P1;HPM_P2
2022/01/17 00:01:13;;;;;;;75.50;38.17;;;;;;;0.15;68.80;94881.15;827913;71;31482;-82
2022/01/17 00:16:17;;;;;;;65.92;37.70;;;;;;;0.05;68.84;94885.22;833711;71;30942;-81
2022/01/17 00:31:10;;;;;;;71.55;39.35;;;;;;;-0.01;69.07;94883.77;833798;71;30479;-81
2022/01/17 00:46:10;;;;;;;65.55;36.85;;;;;;;-0.02;69.48;94896.39;829720;70;30235;-83
2022/01/17 01:01:15;;;;;;;51.15;30.25;;;;;;;-0.06;69.17;94878.47;835740;70;32715;-81
2022/01/17 01:31:15;;;;;;;54.70;27.32;;;;;;;-0.38;69.27;94844.21;833982;71;29718;-82
2022/01/17 01:46:14;;;;;;;50.00;26.48;;;;;;;-0.29;69.56;94849.88;829621;70;30284;-82
2022/01/17 02:01:09;;;;;;;45.33;26.60;;;;;;;-0.32;69.56;94833.06;829797;70;29786;-83
2022/01/17 02:16:13;;;;;;;63.05;28.90;;;;;;;-0.34;69.58;94835.06;829866;71;29774;-85
2022/01/17 02:31:08;;;;;;;44.85;25.57;;;;;;;-0.34;69.27;94822.67;833675;71;30321;-83
2022/01/17 03:01:11;;;;;;;43.95;25.50;;;;;;;-0.37;67.44;94833.39;834255;71;30043;-81
2022/01/17 03:16:12;;;;;;;45.75;25.40;;;;;;;-0.37;66.96;94807.62;834075;71;29837;-81
2022/01/17 03:31:10;;;;;;;44.25;23.80;;;;;;;-0.43;67.15;94810.53;828053;71;28783;-81
2022/01/17 03:46:08;;;;;;;42.08;23.47;;;;;;;-0.47;67.04;94823.05;827994;71;30175;-81
2022/01/17 04:01:09;;;;;;;40.03;23.60;;;;;;;-0.48;67.23;94832.30;833792;71;29776;-83
2022/01/17 04:16:14;;;;;;;44.75;23.83;;;;;;;-0.56;67.28;94846.22;827989;71;31956;-80
2022/01/17 04:31:28;;;;;;;40.48;22.25;;;;;;;-0.51;67.55;94833.48;829193;71;31289;-83
2022/01/17 04:46:16;;;;;;;42.13;21.10;;;;;;;-0.50;67.46;94818.83;834668;71;32716;-82
2022/01/17 05:01:10;;;;;;;32.70;19.15;;;;;;;-0.72;66.87;94811.45;828473;71;29793;-82
2022/01/17 05:16:14;;;;;;;34.88;21.30;;;;;;;-1.00;67.28;94815.69;834419;71;28385;-81
2022/01/17 05:31:16;;;;;;;37.33;23.12;;;;;;;-0.92;67.64;94832.17;828853;71;32838;-81
2022/01/17 05:46:09;;;;;;;49.15;28.05;;;;;;;-0.44;67.06;94833.45;827804;71;29717;-83
2022/01/17 06:01:09;;;;;;;42.05;26.97;;;;;;;-0.27;66.64;94842.22;828422;71;28085;-81
2022/01/17 06:16:09;;;;;;;56.75;29.37;;;;;;;-0.18;66.16;94847.11;834782;71;27700;-82
2022/01/17 06:31:09;;;;;;;46.63;26.45;;;;;;;0.99;64.51;94843.20;823049;71;29646;-80
2022/01/17 06:32:12;;;;;;;48.50;28.60;;;;;;;1.07;64.23;94847.27;819060;72;26334;-80
2022/01/17 06:46:16;;;;;;;48.05;27.85;;;;;;;2.80;60.06;94842.64;833714;71;33234;-76
2022/01/17 07:01:16;;;;;;;49.65;29.40;;;;;;;4.09;55.77;94835.70;827570;71;32816;-79
2022/01/17 07:16:10;;;;;;;52.73;31.73;;;;;;;5.14;51.93;94846.88;828602;71;30396;-78
2022/01/17 07:31:09;;;;;;;52.55;31.97;;;;;;;6.35;49.11;94890.91;828073;71;30280;-78
2022/01/17 07:46:26;;;;;;;45.03;28.95;;;;;;;7.54;47.93;94835.53;834312;71;33177;-75
2022/01/17 08:01:09;;;;;;;12.98;8.65;;;;;;;9.15;41.87;94900.72;828585;71;29616;-77
2022/01/17 08:16:11;;;;;;;8.48;6.28;;;;;;;10.33;40.07;94839.69;828920;71;30368;-77
2022/01/17 08:31:34;;;;;;;9.93;7.00;;;;;;;12.25;37.59;94893.00;834875;71;32820;-79
2022/01/17 08:46:12;;;;;;;10.60;6.47;;;;;;;13.00;34.39;94888.00;827769;71;31996;-78
2022/01/17 09:16:30;;;;;;;7.12;5.40;;;;;;;13.81;31.58;94737.62;833897;71;32244;-78
2022/01/17 09:31:20;;;;;;;9.28;6.22;;;;;;;13.99;31.26;94741.92;821815;71;31939;-77
2022/01/17 09:46:26;;;;;;;7.70;5.33;;;;;;;14.07;31.34;94775.23;820246;70;32472;-77
2022/01/17 10:01:20;;;;;;;7.90;6.40;;;;;;;14.06;32.08;94777.09;833725;71;31792;-77
2022/01/17 10:16:22;;;;;;;10.53;8.90;;;;;;;14.18;33.63;94780.50;833809;71;32265;-78
2022/01/17 10:46:24;;;;;;;12.13;8.95;;;;;;;13.05;36.80;94774.38;819366;71;32264;-78
2022/01/17 11:01:59;;;;;;;9.75;8.45;;;;;;;13.47;35.77;94766.63;815230;72;32336;-77
2022/01/17 11:16:25;;;;;;;11.70;7.85;;;;;;;13.58;34.85;94757.42;833818;71;31679;-74
2022/01/17 11:31:17;;;;;;;7.53;6.75;;;;;;;13.99;34.03;94718.17;833869;71;31746;-78
2022/01/17 11:46:25;;;;;;;6.90;6.12;;;;;;;13.31;34.16;94737.20;828225;71;28720;-77
2022/01/17 12:01:20;;;;;;;6.17;5.55;;;;;;;11.95;35.66;94695.17;827989;71;30977;-78
2022/01/17 12:16:22;;;;;;;6.97;5.95;;;;;;;10.49;38.07;94712.31;828176;71;30296;-75
2022/01/17 12:31:18;;;;;;;8.03;6.08;;;;;;;11.20;37.44;94665.37;828606;71;31721;-78
2022/01/17 12:46:21;;;;;;;9.55;6.97;;;;;;;11.16;37.53;94661.77;834143;71;31770;-76
2022/01/17 13:01:32;;;;;;;8.85;7.00;;;;;;;10.64;38.52;94639.95;821581;71;31810;-78
2022/01/17 13:16:40;;;;;;;7.12;6.45;;;;;;;9.12;40.43;94609.91;809305;72;31834;-78
2022/01/17 13:31:23;;;;;;;8.45;6.85;;;;;;;8.02;42.75;94552.57;827903;71;32702;-77
2022/01/17 13:46:16;;;;;;;7.20;5.42;;;;;;;7.50;43.63;94519.39;829160;71;32666;-79
2022/01/17 14:01:33;;;;;;;6.90;5.03;;;;;;;7.01;44.23;94485.62;834904;71;32742;-77
2022/01/17 14:16:33;;;;;;;6.33;5.35;;;;;;;6.57;44.91;94481.52;834129;71;32733;-79
2022/01/17 14:31:21;;;;;;;8.10;5.40;;;;;;;6.20;45.94;94450.78;834721;71;33164;-77
2022/01/17 14:46:15;;;;;;;7.37;5.50;;;;;;;5.92;47.12;94455.14;835775;70;32934;-78
2022/01/17 15:01:28;;;;;;;5.50;4.62;;;;;;;5.68;47.66;94496.48;835092;71;32647;-76
2022/01/17 15:16:16;;;;;;;9.30;6.35;;;;;;;5.45;48.03;94475.61;827608;71;33220;-76
2022/01/17 15:31:15;;;;;;;7.42;5.65;;;;;;;5.26;48.36;94453.18;834107;71;33061;-79
2022/01/17 16:31:50;;;;;;;9.48;6.78;;;;;;;4.48;49.66;94413.54;786760;75;33065;-82
2022/01/17 17:01:20;;;;;;;10.08;5.33;;;;;;;4.48;49.51;94390.97;825292;71;32692;-82
2022/01/17 17:16:19;;;;;;;5.58;4.40;;;;;;;4.56;48.43;94393.58;828138;71;32896;-80
2022/01/17 17:31:26;;;;;;;6.15;4.67;;;;;;;4.72;47.94;94410.81;835487;71;32680;-82
2022/01/17 18:02:04;;;;;;;6.87;5.90;;;;;;;4.98;46.71;94415.61;787382;74;32968;-81
2022/01/17 18:16:19;;;;;;;6.42;4.85;;;;;;;5.21;46.50;94392.80;835902;71;32651;-82
2022/01/17 18:31:21;;;;;;;3.10;2.85;;;;;;;5.22;45.70;94368.37;835059;71;32785;-84
2022/01/17 18:46:37;;;;;;;4.85;4.00;;;;;;;5.16;45.82;94355.09;779571;75;32950;-86
2022/01/17 19:01:09;;;;;;;3.02;2.72;;;;;;;5.20;45.72;94343.14;818399;71;30327;-83
2022/01/17 19:16:19;;;;;;;4.25;2.77;;;;;;;5.28;45.57;94354.34;821204;71;32769;-83
2022/01/17 19:46:12;;;;;;;6.83;4.05;;;;;;;5.39;45.84;94392.85;828073;71;31864;-81
2022/01/17 20:01:11;;;;;;;4.20;3.00;;;;;;;5.36;46.04;94418.87;827956;71;31490;-81
2022/01/17 20:16:11;;;;;;;3.77;3.37;;;;;;;5.44;46.37;94420.20;834192;71;30791;-81
2022/01/17 20:31:15;;;;;;;5.20;4.15;;;;;;;5.43;46.59;94435.53;834260;71;33148;-80
2022/01/17 20:46:15;;;;;;;7.33;5.10;;;;;;;5.49;46.95;94483.94;834033;71;32666;-82
2022/01/17 21:01:12;;;;;;;6.65;4.80;;;;;;;5.51;47.56;94483.16;828453;71;31486;-85
2022/01/17 21:16:18;;;;;;;4.47;4.08;;;;;;;5.48;48.73;94473.28;834087;71;33006;-82
2022/01/17 21:31:47;;;;;;;5.05;4.55;;;;;;;5.41;52.02;94480.04;808050;72;32754;-82
2022/01/17 21:46:15;;;;;;;4.70;3.90;;;;;;;5.34;54.71;94476.09;828701;71;32696;-81
2022/01/17 22:01:35;;;;;;;5.25;4.20;;;;;;;5.25;55.58;94477.61;811123;72;32811;-82
2022/01/17 22:16:31;;;;;;;5.70;5.05;;;;;;;5.14;58.75;94471.59;824526;71;32847;-80
2022/01/17 22:31:15;;;;;;;4.42;3.90;;;;;;;4.89;64.55;94467.06;827676;71;32688;-82
2022/01/17 22:46:12;;;;;;;3.83;3.50;;;;;;;4.57;68.22;94464.78;830038;71;30258;-80
2022/01/17 23:16:14;;;;;;;4.00;3.60;;;;;;;4.21;70.15;94448.17;834025;71;30354;-81
2022/01/17 23:46:12;;;;;;;3.12;2.20;;;;;;;4.15;70.74;94481.62;834244;71;31329;-82
